Time;durP1;ratioP1;P1;durP2;ratioP2;P2;SDS_P1;SDS_P2;PMS_P1;PMS_P2;Temp;Humidity;BMP_temperature;BMP_pressure;BME280_temperature;BME280_humidity;BME280_pressure;Samples;Min_cycle;Max_cycle;Signal;HPM_P1;HPM_P2
2021/01/28 00:02:11;;;;;;;3.20;2.90;;;2.80;97.20;;;;;;5014913;28;20782;-79
2021/01/28 00:04:39;;;;;;;3.57;3.27;;;2.80;97.20;;;;;;5017919;28;20273;-77
2021/01/28 00:07:05;;;;;;;3.63;3.33;;;2.80;96.70;;;;;;5012315;28;20242;-78
2021/01/28 00:09:31;;;;;;;3.20;2.90;;;2.80;97.20;;;;;;5018164;28;20195;-79
2021/01/28 00:11:57;;;;;;;3.50;3.20;;;2.80;97.10;;;;;;5018249;28;20230;-79
2021/01/28 00:14:24;;;;;;;3.37;3.00;;;2.90;96.80;;;;;;5022583;28;20198;-77
2021/01/28 00:16:50;;;;;;;3.40;3.10;;;2.90;96.80;;;;;;5023498;28;20700;-77
2021/01/28 00:19:17;;;;;;;3.33;3.03;;;2.90;96.60;;;;;;5022394;28;20278;-77
2021/01/28 00:21:44;;;;;;;3.70;3.00;;;2.90;96.70;;;;;;5019298;28;20237;-80
2021/01/28 00:24:10;;;;;;;3.53;3.10;;;2.90;96.50;;;;;;5018656;28;20203;-79
2021/01/28 00:26:37;;;;;;;3.00;2.80;;;2.80;96.70;;;;;;5016942;28;20234;-77
2021/01/28 00:29:04;;;;;;;3.63;3.33;;;2.70;97.20;;;;;;5014757;28;20204;-81
2021/01/28 00:31:30;;;;;;;3.17;2.93;;;2.70;97.20;;;;;;5021045;28;20855;-81
2021/01/28 00:33:56;;;;;;;3.33;3.03;;;2.70;97.30;;;;;;5023383;28;20209;-78
2021/01/28 00:36:23;;;;;;;3.30;3.00;;;2.80;97.20;;;;;;5015215;28;20569;-79
2021/01/28 00:38:50;;;;;;;3.40;3.10;;;2.80;97.00;;;;;;5021610;28;20202;-77
2021/01/28 00:41:17;;;;;;;4.00;3.10;;;2.90;97.10;;;;;;5019351;28;20206;-79
2021/01/28 00:43:43;;;;;;;3.37;3.00;;;2.80;96.90;;;;;;5023305;28;20256;-78
2021/01/28 00:46:09;;;;;;;4.17;3.40;;;2.80;97.00;;;;;;5020993;28;20203;-78
2021/01/28 00:48:36;;;;;;;3.90;3.07;;;2.80;97.00;;;;;;5023407;28;20207;-79
2021/01/28 00:51:03;;;;;;;4.77;3.20;;;2.80;97.20;;;;;;5017838;28;20215;-78
2021/01/28 00:53:30;;;;;;;3.47;3.17;;;2.80;97.20;;;;;;5013022;28;20230;-77
2021/01/28 00:55:57;;;;;;;3.67;3.17;;;2.70;97.20;;;;;;5019778;28;20276;-81
2021/01/28 00:58:25;;;;;;;3.23;2.93;;;2.70;97.20;;;;;;5021657;28;20222;-77
2021/01/28 01:00:52;;;;;;;3.50;3.20;;;2.70;97.50;;;;;;5018219;28;20222;-80
2021/01/28 01:03:20;;;;;;;3.20;3.00;;;2.80;97.20;;;;;;5014701;28;20235;-85
2021/01/28 01:05:47;;;;;;;3.90;3.10;;;2.70;97.20;;;;;;5020473;28;20210;-77
2021/01/28 01:08:16;;;;;;;3.10;2.80;;;2.80;97.30;;;;;;5021575;28;20698;-79
2021/01/28 01:10:45;;;;;;;3.47;2.80;;;2.80;97.20;;;;;;5021904;28;20226;-78
2021/01/28 01:13:14;;;;;;;3.30;3.00;;;2.80;97.20;;;;;;5019863;28;20223;-81
2021/01/28 01:15:40;;;;;;;3.53;3.10;;;2.80;97.20;;;;;;5016745;28;20207;-77
2021/01/28 01:18:10;;;;;;;3.13;2.93;;;2.80;97.20;;;;;;5020072;28;20222;-82
2021/01/28 01:20:36;;;;;;;3.27;2.93;;;2.80;97.30;;;;;;5016010;28;20210;-78
2021/01/28 01:23:03;;;;;;;3.00;2.70;;;2.90;97.20;;;;;;5012269;28;20597;-80
2021/01/28 01:25:29;;;;;;;3.70;3.37;;;2.90;97.00;;;;;;5014028;28;20206;-78
2021/01/28 01:27:56;;;;;;;2.73;2.53;;;3.00;97.10;;;;;;5015629;28;20235;-79
2021/01/28 01:30:24;;;;;;;3.43;3.13;;;3.10;97.10;;;;;;5018453;28;20221;-79
2021/01/28 01:32:51;;;;;;;3.20;3.00;;;3.10;96.50;;;;;;5013967;28;20707;-78
2021/01/28 01:35:19;;;;;;;2.90;2.70;;;3.20;96.40;;;;;;5015658;28;20205;-79
2021/01/28 01:37:46;;;;;;;3.10;2.90;;;3.10;96.40;;;;;;5021566;28;20708;-79
2021/01/28 01:40:20;;;;;;;2.83;2.63;;;3.10;96.50;;;;;;5015760;28;20256;-79
2021/01/28 01:42:48;;;;;;;3.20;2.90;;;3.00;96.70;;;;;;5023295;28;20233;-80
2021/01/28 01:45:28;;;;;;;2.93;2.73;;;2.90;96.60;;;;;;5017042;28;20232;-83
2021/01/28 01:48:01;;;;;;;2.50;2.30;;;3.00;97.10;;;;;;5026244;28;20232;-81
2021/01/28 01:50:39;;;;;;;2.90;2.60;;;3.00;97.00;;;;;;5022518;28;20231;-78
2021/01/28 01:53:11;;;;;;;2.73;2.53;;;3.00;96.90;;;;;;5013101;28;20724;-79
2021/01/28 01:55:38;;;;;;;3.00;2.80;;;3.00;97.40;;;;;;5019646;28;20581;-81
2021/01/28 01:58:06;;;;;;;2.80;2.60;;;3.00;97.30;;;;;;5016615;28;20227;-78
2021/01/28 02:00:33;;;;;;;2.80;2.60;;;3.00;97.30;;;;;;5014225;28;20604;-78
2021/01/28 02:03:06;;;;;;;2.63;2.43;;;3.10;97.20;;;;;;5020402;28;20226;-80
2021/01/28 02:05:36;;;;;;;3.10;2.90;;;3.10;96.90;;;;;;5020423;28;20584;-79
2021/01/28 02:08:05;;;;;;;2.70;2.50;;;3.20;96.80;;;;;;5013202;28;20226;-78
2021/01/28 02:10:31;;;;;;;2.80;2.60;;;3.20;96.40;;;;;;5014367;28;20749;-79
2021/01/28 02:12:58;;;;;;;2.70;2.50;;;3.20;96.40;;;;;;5016073;28;20223;-77
2021/01/28 02:15:26;;;;;;;2.60;2.40;;;3.10;96.50;;;;;;5013805;28;20861;-77
2021/01/28 02:17:54;;;;;;;2.60;2.40;;;3.20;96.70;;;;;;5019072;28;20226;-79
2021/01/28 02:20:36;;;;;;;3.10;2.90;;;3.20;96.50;;;;;;5011972;28;20207;-77
2021/01/28 02:23:08;;;;;;;3.03;2.40;;;3.40;96.40;;;;;;5019248;28;20234;-77
2021/01/28 02:25:37;;;;;;;2.60;2.40;;;3.40;96.00;;;;;;5017298;28;20202;-79
2021/01/28 02:28:07;;;;;;;2.57;2.20;;;3.30;95.70;;;;;;5018006;28;20220;-77
2021/01/28 02:30:34;;;;;;;3.63;2.37;;;3.40;96.10;;;;;;5021274;28;20233;-77
2021/01/28 02:33:01;;;;;;;2.53;2.33;;;3.40;96.10;;;;;;5015612;28;20222;-79
2021/01/28 02:35:30;;;;;;;2.57;2.37;;;3.40;96.10;;;;;;5021789;28;20200;-76
2021/01/28 02:37:59;;;;;;;2.67;2.47;;;3.40;95.90;;;;;;5014263;28;20225;-77
2021/01/28 02:40:28;;;;;;;2.83;2.53;;;3.40;96.20;;;;;;5014195;28;20567;-82
2021/01/28 02:42:55;;;;;;;3.00;2.63;;;3.40;96.10;;;;;;5027133;28;20230;-78
2021/01/28 02:45:26;;;;;;;2.87;2.67;;;3.40;96.10;;;;;;5016931;28;20203;-77
2021/01/28 02:47:53;;;;;;;2.40;2.20;;;3.40;96.10;;;;;;5015098;28;20346;-79
2021/01/28 02:50:20;;;;;;;2.60;2.40;;;3.50;96.10;;;;;;5019324;28;20226;-80
2021/01/28 02:52:47;;;;;;;2.97;2.30;;;3.40;96.10;;;;;;5021432;28;20223;-78
2021/01/28 02:55:14;;;;;;;2.60;2.40;;;3.50;96.10;;;;;;5023312;28;20762;-83
2021/01/28 02:57:41;;;;;;;2.30;2.10;;;3.50;96.20;;;;;;5015348;28;20253;-78
2021/01/28 03:00:11;;;;;;;2.63;2.43;;;3.40;96.20;;;;;;5020942;28;20218;-81
2021/01/28 03:02:37;;;;;;;2.33;2.13;;;3.40;96.10;;;;;;5008406;28;20289;-79
2021/01/28 03:05:05;;;;;;;2.37;2.17;;;3.40;96.30;;;;;;5019119;28;20206;-81
2021/01/28 03:07:31;;;;;;;2.90;2.17;;;3.30;96.50;;;;;;5014371;28;20570;-78
2021/01/28 03:09:57;;;;;;;1.90;1.80;;;3.40;96.40;;;;;;5018450;28;20533;-78
2021/01/28 03:12:24;;;;;;;2.50;2.30;;;3.40;96.10;;;;;;5017355;28;20604;-80
2021/01/28 03:14:50;;;;;;;2.33;2.13;;;3.50;96.10;;;;;;5017028;28;20199;-81
2021/01/28 03:17:17;;;;;;;2.03;1.93;;;3.50;96.10;;;;;;5022683;28;20230;-86
2021/01/28 03:19:44;;;;;;;2.70;2.50;;;3.40;96.00;;;;;;5017005;28;20505;-84
2021/01/28 03:22:10;;;;;;;2.30;2.10;;;3.30;96.40;;;;;;5024520;28;20278;-84
2021/01/28 03:24:36;;;;;;;2.23;2.00;;;3.30;96.70;;;;;;5014683;28;20716;-82
2021/01/28 03:27:03;;;;;;;2.10;1.90;;;3.40;96.40;;;;;;5020626;28;20223;-78
2021/01/28 03:29:29;;;;;;;2.73;2.37;;;3.30;96.50;;;;;;5011923;28;20199;-82
2021/01/28 03:31:55;;;;;;;2.40;2.20;;;3.40;96.30;;;;;;5019375;28;20231;-79
2021/01/28 03:34:22;;;;;;;1.83;1.73;;;3.30;96.20;;;;;;5023138;28;20198;-78
2021/01/28 03:36:49;;;;;;;2.00;1.90;;;3.20;96.50;;;;;;5015134;28;20234;-83
2021/01/28 03:39:16;;;;;;;2.17;2.00;;;3.20;96.70;;;;;;5013678;28;20230;-78
2021/01/28 03:41:42;;;;;;;2.37;1.90;;;3.30;96.80;;;;;;5018260;28;20232;-78
2021/01/28 03:44:08;;;;;;;1.80;1.70;;;3.40;96.60;;;;;;5015002;28;20209;-78
2021/01/28 03:46:34;;;;;;;1.80;1.70;;;3.50;96.30;;;;;;5013951;28;20214;-78
2021/01/28 03:49:01;;;;;;;1.87;1.77;;;3.50;96.20;;;;;;5021416;28;20224;-79
2021/01/28 03:51:28;;;;;;;1.63;1.53;;;3.50;96.20;;;;;;5019790;28;20733;-81
2021/01/28 03:53:54;;;;;;;1.73;1.63;;;3.50;96.10;;;;;;5020518;28;20203;-82
2021/01/28 03:56:20;;;;;;;2.23;2.03;;;3.60;96.00;;;;;;5018951;28;20206;-79
2021/01/28 03:58:47;;;;;;;1.77;1.67;;;3.50;96.10;;;;;;5013072;28;20213;-79
2021/01/28 04:01:13;;;;;;;2.00;1.90;;;3.50;96.20;;;;;;5011494;28;20277;-79
2021/01/28 04:03:39;;;;;;;1.80;1.50;;;3.50;96.20;;;;;;5012232;28;20692;-80
2021/01/28 04:06:05;;;;;;;1.70;1.60;;;3.50;96.30;;;;;;5011373;28;20208;-78
2021/01/28 04:08:33;;;;;;;2.93;1.90;;;3.50;96.20;;;;;;5016335;28;20543;-84
2021/01/28 04:10:59;;;;;;;1.87;1.77;;;3.50;96.10;;;;;;5018380;28;20242;-79
2021/01/28 04:13:25;;;;;;;1.70;1.60;;;3.60;96.20;;;;;;5018966;28;20238;-79
2021/01/28 04:15:52;;;;;;;2.00;1.90;;;3.50;96.10;;;;;;5014650;28;20551;-78
2021/01/28 04:18:19;;;;;;;1.70;1.60;;;3.50;96.20;;;;;;5014997;28;20226;-79
2021/01/28 04:20:45;;;;;;;1.70;1.57;;;3.60;96.40;;;;;;5020076;28;20261;-79
2021/01/28 04:23:12;;;;;;;1.80;1.70;;;3.50;96.30;;;;;;5024564;28;20234;-84
2021/01/28 04:25:39;;;;;;;2.00;1.73;;;3.50;96.40;;;;;;5018586;28;20195;-81
2021/01/28 04:28:05;;;;;;;1.90;1.80;;;3.50;96.30;;;;;;5017656;28;20629;-81
2021/01/28 04:30:34;;;;;;;2.23;1.87;;;3.40;96.50;;;;;;5016055;28;20293;-79
2021/01/28 04:33:02;;;;;;;1.93;1.83;;;3.40;96.60;;;;;;5015995;28;20233;-79
2021/01/28 04:35:28;;;;;;;2.17;1.97;;;3.40;96.80;;;;;;5025346;28;20211;-78
2021/01/28 04:37:55;;;;;;;1.93;1.77;;;3.30;96.80;;;;;;5019866;28;20233;-84
2021/01/28 04:40:32;;;;;;;2.00;1.80;;;3.30;97.10;;;;;;5016663;28;20206;-82
2021/01/28 04:43:04;;;;;;;2.00;1.80;;;3.30;97.30;;;;;;5016735;28;20229;-81
2021/01/28 04:45:32;;;;;;;2.20;2.00;;;3.20;97.30;;;;;;5020017;28;20203;-79
2021/01/28 04:48:01;;;;;;;2.67;1.90;;;3.20;97.30;;;;;;5020161;28;20697;-81
2021/01/28 04:50:30;;;;;;;1.93;1.83;;;3.20;97.50;;;;;;5016462;28;20231;-82
2021/01/28 04:53:02;;;;;;;3.37;1.80;;;3.30;97.50;;;;;;5018312;28;20233;-79
2021/01/28 04:55:35;;;;;;;2.13;1.83;;;3.40;97.50;;;;;;5012595;28;20207;-80
2021/01/28 04:58:03;;;;;;;2.50;1.67;;;3.40;97.40;;;;;;5015368;28;21016;-81
2021/01/28 05:00:29;;;;;;;1.90;1.80;;;3.30;97.40;;;;;;5018133;28;20227;-79
2021/01/28 05:03:03;;;;;;;1.80;1.70;;;3.20;97.70;;;;;;5017369;28;20230;-79
2021/01/28 05:05:29;;;;;;;1.80;1.70;;;3.30;98.10;;;;;;5022574;28;20202;-78
2021/01/28 05:07:56;;;;;;;1.77;1.67;;;3.30;98.20;;;;;;5015447;28;20481;-80
2021/01/28 05:10:41;;;;;;;2.17;1.80;;;3.30;98.10;;;;;;5022932;28;20626;-81
2021/01/28 05:13:09;;;;;;;1.93;1.63;;;3.20;98.40;;;;;;5017325;28;20218;-78
2021/01/28 05:15:38;;;;;;;1.93;1.70;;;3.20;98.80;;;;;;5021173;28;20213;-78
2021/01/28 05:18:20;;;;;;;3.47;1.70;;;3.30;98.70;;;;;;5016973;28;20219;-83
2021/01/28 05:20:47;;;;;;;2.97;1.80;;;3.30;98.70;;;;;;5019051;28;20214;-82
2021/01/28 05:23:28;;;;;;;2.33;1.80;;;3.30;98.60;;;;;;5023245;28;20252;-81
2021/01/28 05:25:55;;;;;;;3.20;1.53;;;3.30;98.50;;;;;;5018070;28;20207;-78
2021/01/28 05:28:25;;;;;;;1.70;1.60;;;3.30;98.80;;;;;;5018406;28;20237;-81
2021/01/28 05:30:52;;;;;;;2.37;1.80;;;3.40;98.90;;;;;;5018782;28;20705;-79
2021/01/28 05:33:38;;;;;;;2.93;1.67;;;3.40;98.80;;;;;;5020858;28;20257;-79
2021/01/28 05:36:11;;;;;;;1.87;1.77;;;3.40;98.70;;;;;;5014878;28;20259;-81
2021/01/28 05:38:41;;;;;;;1.57;1.47;;;3.30;98.50;;;;;;5019066;28;20219;-80
2021/01/28 05:41:11;;;;;;;1.83;1.63;;;3.30;98.70;;;;;;5021372;28;20207;-80
2021/01/28 05:43:41;;;;;;;2.43;1.60;;;3.30;99.00;;;;;;5025573;28;20298;-84
2021/01/28 05:46:20;;;;;;;1.93;1.60;;;3.30;99.10;;;;;;5013402;28;20213;-82
2021/01/28 05:48:59;;;;;;;1.60;1.50;;;3.30;99.00;;;;;;5022729;28;20224;-78
2021/01/28 05:51:26;;;;;;;2.10;2.00;;;3.30;99.00;;;;;;5018615;28;20277;-79
2021/01/28 05:54:01;;;;;;;1.77;1.67;;;3.40;99.20;;;;;;5019128;28;20227;-79
2021/01/28 05:56:30;;;;;;;1.67;1.57;;;3.40;98.80;;;;;;5015574;28;20231;-78
2021/01/28 05:59:06;;;;;;;2.17;1.53;;;3.40;98.90;;;;;;5016018;28;20194;-80
2021/01/28 06:01:49;;;;;;;1.73;1.63;;;3.40;98.60;;;;;;5010044;28;20222;-79
2021/01/28 06:04:31;;;;;;;4.40;1.90;;;3.40;98.90;;;;;;5016482;28;20566;-81
2021/01/28 06:07:24;;;;;;;1.63;1.53;;;3.50;98.70;;;;;;5019283;28;20231;-78
2021/01/28 06:10:11;;;;;;;2.90;1.73;;;3.60;98.50;;;;;;5019560;28;20207;-79
2021/01/28 06:13:00;;;;;;;1.70;1.57;;;3.50;98.60;;;;;;5015965;28;20221;-78
2021/01/28 06:15:38;;;;;;;1.70;1.60;;;3.40;98.50;;;;;;5015100;28;20196;-79
2021/01/28 06:18:35;;;;;;;1.73;1.63;;;3.50;98.80;;;;;;5020584;28;20218;-79
2021/01/28 06:21:26;;;;;;;2.10;1.50;;;3.50;98.80;;;;;;5014139;28;20257;-77
2021/01/28 06:24:24;;;;;;;2.30;1.93;;;3.60;98.70;;;;;;5014234;28;20592;-80
2021/01/28 06:27:01;;;;;;;1.77;1.67;;;3.60;98.70;;;;;;5016030;28;20223;-81
2021/01/28 06:29:37;;;;;;;3.53;2.33;;;3.60;98.90;;;;;;5011580;28;20564;-81
2021/01/28 06:32:34;;;;;;;2.20;1.50;;;3.70;99.10;;;;;;5017912;28;20231;-78
2021/01/28 06:35:14;;;;;;;2.63;1.90;;;3.60;98.60;;;;;;5020625;28;20203;-79
2021/01/28 06:37:57;;;;;;;4.03;2.00;;;3.60;98.90;;;;;;5016258;28;20283;-78
2021/01/28 06:40:28;;;;;;;2.17;1.80;;;3.60;99.00;;;;;;5013040;28;20573;-81
2021/01/28 06:42:59;;;;;;;3.50;1.87;;;3.70;99.00;;;;;;5011994;28;20597;-78
2021/01/28 06:45:31;;;;;;;3.20;2.10;;;3.70;99.10;;;;;;5019371;28;20198;-79
2021/01/28 06:48:01;;;;;;;2.10;1.90;;;3.70;98.70;;;;;;5018080;28;20223;-80
2021/01/28 06:50:34;;;;;;;2.67;1.93;;;3.70;98.60;;;;;;5014196;28;20563;-78
2021/01/28 06:53:11;;;;;;;2.90;2.10;;;3.70;98.50;;;;;;5018839;28;20218;-77
2021/01/28 06:55:47;;;;;;;2.93;2.30;;;3.70;98.40;;;;;;5015115;28;20198;-77
2021/01/28 06:58:34;;;;;;;3.17;2.20;;;3.80;98.40;;;;;;5012635;28;20226;-77
2021/01/28 07:01:10;;;;;;;4.73;2.27;;;3.80;98.10;;;;;;5014579;28;20248;-84
2021/01/28 07:03:51;;;;;;;2.70;2.40;;;3.80;98.00;;;;;;5021168;28;20225;-78
2021/01/28 07:06:26;;;;;;;3.13;2.30;;;3.90;98.00;;;;;;5012938;28;20195;-78
2021/01/28 07:08:58;;;;;;;3.27;2.43;;;3.90;97.90;;;;;;5014360;28;20190;-80
2021/01/28 07:11:33;;;;;;;3.20;2.50;;;3.90;97.60;;;;;;5012311;28;20232;-82
2021/01/28 07:14:00;;;;;;;2.47;1.90;;;3.90;97.70;;;;;;5017346;28;20658;-77
2021/01/28 07:16:34;;;;;;;3.03;2.43;;;3.90;97.60;;;;;;4997584;28;20238;-77
2021/01/28 07:19:10;;;;;;;5.07;2.30;;;3.90;97.70;;;;;;5011959;28;20203;-80
2021/01/28 07:21:38;;;;;;;3.47;2.70;;;3.80;97.70;;;;;;5008405;28;20891;-83
2021/01/28 07:24:09;;;;;;;5.70;2.70;;;3.90;97.70;;;;;;5008761;28;22056;-86
2021/01/28 07:26:45;;;;;;;5.67;2.40;;;3.80;97.90;;;;;;5007720;28;20226;-80
2021/01/28 07:29:56;;;;;;;3.93;2.80;;;3.90;97.90;;;;;;5007571;28;21265;-78
2021/01/28 07:32:52;;;;;;;6.37;3.00;;;3.90;97.90;;;;;;5005157;28;20261;-83
2021/01/28 07:35:45;;;;;;;8.67;2.70;;;3.90;97.80;;;;;;5008056;28;20563;-79
2021/01/28 07:38:42;;;;;;;2.87;2.20;;;3.80;97.60;;;;;;5010905;28;20332;-76
2021/01/28 07:41:40;;;;;;;5.97;2.83;;;3.80;97.90;;;;;;5014817;28;20207;-85
2021/01/28 07:44:43;;;;;;;4.77;2.80;;;3.90;98.20;;;;;;5010412;28;20203;-81
2021/01/28 07:47:48;;;;;;;6.77;2.90;;;3.90;98.00;;;;;;5012808;28;20569;-82
2021/01/28 07:50:27;;;;;;;15.80;3.10;;;4.00;97.70;;;;;;5013691;28;20260;-80
2021/01/28 07:52:55;;;;;;;10.53;2.77;;;4.00;97.70;;;;;;5014177;28;20244;-77
2021/01/28 07:55:42;;;;;;;6.63;3.00;;;4.00;97.80;;;;;;5007868;28;20214;-81
2021/01/28 07:58:21;;;;;;;8.33;2.80;;;4.00;97.80;;;;;;5016807;28;20584;-79
2021/01/28 08:00:49;;;;;;;7.73;2.90;;;4.00;98.00;;;;;;5016465;28;20223;-86
2021/01/28 08:03:25;;;;;;;9.90;3.30;;;4.00;97.90;;;;;;5013877;28;20796;-81
2021/01/28 08:05:54;;;;;;;7.83;3.30;;;4.10;97.80;;;;;;5011818;28;20202;-79
2021/01/28 08:08:21;;;;;;;7.53;2.83;;;4.00;97.70;;;;;;5019161;28;20705;-81
2021/01/28 08:10:49;;;;;;;6.40;2.73;;;4.10;97.70;;;;;;5008720;28;20207;-86
2021/01/28 08:13:23;;;;;;;11.30;2.93;;;4.20;97.50;;;;;;5013845;28;20555;-86
2021/01/28 08:15:54;;;;;;;7.97;3.00;;;4.30;97.40;;;;;;5013745;28;20210;-84
2021/01/28 08:18:25;;;;;;;11.20;3.13;;;4.30;97.10;;;;;;5016674;28;20566;-80
2021/01/28 08:21:05;;;;;;;10.23;3.00;;;4.20;97.10;;;;;;5013224;28;20203;-79
2021/01/28 08:23:34;;;;;;;9.97;3.17;;;4.20;97.20;;;;;;5012758;28;20229;-77
2021/01/28 08:26:01;;;;;;;9.03;3.37;;;4.30;97.30;;;;;;5008673;28;20245;-78
2021/01/28 08:28:31;;;;;;;12.37;3.00;;;4.20;97.10;;;;;;5012896;28;20242;-81
2021/01/28 08:31:01;;;;;;;11.47;3.93;;;4.20;97.30;;;;;;5009707;28;20245;-81
2021/01/28 08:33:28;;;;;;;6.87;3.60;;;4.20;97.50;;;;;;5012559;28;20255;-79
2021/01/28 08:35:56;;;;;;;5.37;3.07;;;4.30;97.40;;;;;;5014165;28;20207;-81
2021/01/28 08:38:26;;;;;;;7.87;3.30;;;4.30;97.20;;;;;;5015242;28;20242;-79
2021/01/28 08:41:05;;;;;;;5.20;2.60;;;4.30;97.30;;;;;;5016055;28;20273;-80
2021/01/28 08:43:32;;;;;;;5.73;2.90;;;4.30;97.40;;;;;;5013844;28;20229;-80
2021/01/28 08:46:05;;;;;;;7.20;3.03;;;4.30;97.20;;;;;;5017036;28;21841;-77
2021/01/28 08:48:32;;;;;;;5.17;2.77;;;4.30;97.10;;;;;;5015310;28;20227;-78
2021/01/28 08:51:08;;;;;;;4.07;2.27;;;4.40;97.60;;;;;;5011087;28;20852;-79
2021/01/28 08:53:37;;;;;;;2.77;2.47;;;4.50;97.30;;;;;;5012926;28;20222;-80
2021/01/28 08:56:08;;;;;;;3.10;2.50;;;4.50;97.30;;;;;;5018611;28;20194;-81
2021/01/28 08:58:40;;;;;;;6.47;2.83;;;4.50;97.20;;;;;;5015343;28;20579;-77
2021/01/28 09:01:07;;;;;;;6.10;2.27;;;4.50;96.90;;;;;;5016257;28;20321;-80
2021/01/28 09:03:36;;;;;;;4.37;2.33;;;4.60;96.70;;;;;;5020876;28;20631;-78
2021/01/28 09:06:05;;;;;;;3.13;2.30;;;4.60;96.40;;;;;;5019324;28;20848;-79
2021/01/28 09:08:34;;;;;;;5.87;2.60;;;4.50;96.70;;;;;;5019831;28;20218;-78
2021/01/28 09:11:13;;;;;;;5.37;2.40;;;4.40;97.10;;;;;;5016374;28;20229;-78
2021/01/28 09:13:41;;;;;;;2.67;2.40;;;4.50;97.30;;;;;;5015691;28;20579;-78
2021/01/28 09:16:11;;;;;;;3.50;2.20;;;4.60;97.30;;;;;;5017987;28;20659;-80
2021/01/28 09:18:40;;;;;;;2.83;2.07;;;4.70;97.00;;;;;;5019256;28;20907;-78
2021/01/28 09:21:10;;;;;;;4.13;2.10;;;4.80;96.90;;;;;;5017970;28;20199;-77
2021/01/28 09:23:37;;;;;;;4.10;2.20;;;4.90;96.50;;;;;;5019268;28;20256;-76
2021/01/28 09:26:18;;;;;;;6.63;2.30;;;4.80;96.20;;;;;;5016989;28;20747;-80
2021/01/28 09:28:45;;;;;;;5.00;2.33;;;4.70;96.40;;;;;;5016144;28;20234;-80
2021/01/28 09:31:28;;;;;;;3.77;2.27;;;4.80;96.70;;;;;;5016923;28;20325;-79
2021/01/28 09:33:55;;;;;;;2.83;2.20;;;4.80;96.70;;;;;;5015451;28;20202;-81
2021/01/28 09:36:25;;;;;;;2.53;2.00;;;4.70;97.30;;;;;;5017293;28;20199;-80
2021/01/28 09:39:01;;;;;;;2.83;1.70;;;4.60;97.20;;;;;;5018531;28;20210;-78
2021/01/28 09:41:35;;;;;;;3.37;2.00;;;4.70;97.30;;;;;;5017881;28;20708;-81
2021/01/28 09:44:02;;;;;;;2.33;1.90;;;4.70;97.30;;;;;;5002658;28;20194;-76
2021/01/28 09:46:30;;;;;;;3.77;1.87;;;4.70;97.60;;;;;;5013278;28;20226;-78
2021/01/28 09:48:59;;;;;;;2.83;1.43;;;4.80;97.40;;;;;;5013741;28;20662;-77
2021/01/28 09:51:35;;;;;;;5.10;1.90;;;4.80;97.30;;;;;;5017306;28;20214;-78
2021/01/28 09:54:12;;;;;;;1.50;1.40;;;4.80;97.70;;;;;;5016129;28;20281;-78
2021/01/28 09:56:40;;;;;;;6.63;3.87;;;4.80;97.50;;;;;;5018710;28;20230;-79
2021/01/28 09:59:07;;;;;;;1.97;1.40;;;4.90;97.70;;;;;;5016744;28;20215;-78
2021/01/28 10:01:33;;;;;;;2.00;1.70;;;4.90;97.20;;;;;;5013297;28;20230;-78
2021/01/28 10:04:00;;;;;;;1.47;1.20;;;4.90;97.20;;;;;;5015241;28;20293;-79
2021/01/28 10:06:26;;;;;;;2.17;1.40;;;4.80;97.50;;;;;;5013578;28;20202;-78
2021/01/28 10:08:52;;;;;;;1.53;1.43;;;4.80;97.70;;;;;;5019309;28;20207;-82
2021/01/28 10:11:19;;;;;;;5.00;1.80;;;4.90;98.00;;;;;;5017372;28;20295;-78
2021/01/28 10:13:49;;;;;;;2.13;1.63;;;4.80;97.70;;;;;;5017035;28;20199;-78
2021/01/28 10:16:15;;;;;;;2.03;1.83;;;4.80;97.70;;;;;;5014856;28;20199;-79
2021/01/28 10:18:42;;;;;;;1.50;1.40;;;4.80;98.00;;;;;;5018985;28;20219;-78
2021/01/28 10:21:08;;;;;;;3.00;1.37;;;4.80;97.90;;;;;;5022709;28;20674;-77
2021/01/28 10:23:34;;;;;;;1.67;1.50;;;4.90;98.00;;;;;;5017414;28;20226;-78
2021/01/28 10:26:01;;;;;;;2.20;1.40;;;4.90;97.70;;;;;;5015032;28;20665;-78
2021/01/28 10:28:28;;;;;;;2.37;1.90;;;4.90;97.80;;;;;;5017856;28;20262;-78
2021/01/28 10:30:55;;;;;;;3.70;1.50;;;5.00;98.10;;;;;;5015115;28;20207;-77
2021/01/28 10:33:27;;;;;;;2.90;1.70;;;5.10;97.70;;;;;;5016549;28;20225;-80
2021/01/28 10:35:54;;;;;;;7.07;1.80;;;5.20;97.50;;;;;;5020213;28;20720;-78
2021/01/28 10:38:20;;;;;;;2.43;1.70;;;5.20;97.20;;;;;;5019379;28;20753;-77
2021/01/28 10:40:46;;;;;;;2.30;1.80;;;5.20;97.40;;;;;;5010670;28;20260;-77
2021/01/28 10:43:12;;;;;;;2.33;1.80;;;5.10;97.00;;;;;;5014907;28;20636;-78
2021/01/28 10:45:41;;;;;;;2.13;1.73;;;5.00;97.10;;;;;;5016629;28;20203;-84
2021/01/28 10:48:09;;;;;;;3.63;1.37;;;5.00;97.60;;;;;;5018835;28;20246;-80
2021/01/28 10:50:36;;;;;;;1.40;1.30;;;5.00;97.70;;;;;;5020705;28;20199;-79
2021/01/28 10:53:04;;;;;;;1.30;1.20;;;5.00;97.60;;;;;;5019847;28;20230;-79
2021/01/28 10:55:32;;;;;;;2.00;1.40;;;5.10;97.70;;;;;;5016998;28;21379;-82
2021/01/28 10:58:00;;;;;;;3.37;1.80;;;5.10;97.60;;;;;;5016597;28;20226;-80
2021/01/28 11:00:27;;;;;;;2.27;1.60;;;5.10;98.10;;;;;;5018678;28;20222;-80
2021/01/28 11:02:53;;;;;;;3.37;1.53;;;5.10;97.70;;;;;;5018179;28;20273;-81
2021/01/28 11:05:23;;;;;;;2.07;1.87;;;5.10;97.70;;;;;;5016091;28;20195;-79
2021/01/28 11:07:50;;;;;;;3.50;1.50;;;5.10;97.80;;;;;;5018674;28;20265;-78
2021/01/28 11:10:18;;;;;;;2.07;1.50;;;5.20;98.20;;;;;;5015417;28;20593;-78
2021/01/28 11:12:44;;;;;;;1.47;1.20;;;5.10;97.70;;;;;;5018263;28;20575;-78
2021/01/28 11:15:12;;;;;;;2.77;1.60;;;5.10;98.20;;;;;;5015755;28;20252;-84
2021/01/28 11:17:38;;;;;;;1.70;1.40;;;5.00;98.30;;;;;;5020412;28;20226;-78
2021/01/28 11:20:06;;;;;;;2.20;1.33;;;5.00;98.20;;;;;;5017895;28;20191;-83
2021/01/28 11:22:33;;;;;;;1.20;1.10;;;5.00;98.20;;;;;;5013453;28;20223;-82
2021/01/28 11:25:00;;;;;;;1.73;1.37;;;5.00;98.20;;;;;;5017081;28;20751;-81
2021/01/28 11:27:27;;;;;;;2.97;2.23;;;5.00;98.50;;;;;;5017177;28;20222;-79
2021/01/28 11:29:54;;;;;;;1.73;1.60;;;4.90;98.80;;;;;;5012058;28;20294;-83
2021/01/28 11:32:20;;;;;;;1.50;1.40;;;4.90;99.00;;;;;;5014214;28;20230;-81
2021/01/28 11:34:46;;;;;;;2.07;1.40;;;5.00;98.80;;;;;;5017723;28;20212;-79
2021/01/28 11:37:13;;;;;;;1.73;1.30;;;5.00;99.10;;;;;;5018328;28;20230;-80
2021/01/28 11:39:40;;;;;;;1.50;1.40;;;4.90;98.60;;;;;;5018999;28;20693;-82
2021/01/28 11:42:07;;;;;;;1.97;1.50;;;4.80;98.80;;;;;;5020216;28;20703;-90
2021/01/28 11:44:33;;;;;;;1.90;1.40;;;4.80;99.40;;;;;;5027990;28;20195;-83
2021/01/28 11:46:59;;;;;;;1.83;1.40;;;4.70;99.00;;;;;;5017909;28;20249;-79
2021/01/28 11:49:25;;;;;;;1.60;1.50;;;4.70;99.60;;;;;;5018618;28;20194;-82
2021/01/28 11:51:52;;;;;;;1.70;1.30;;;4.70;99.90;;;;;;5027032;28;20450;-84
2021/01/28 11:54:18;;;;;;;3.80;1.40;;;4.70;99.90;;;;;;5022515;28;20194;-82
2021/01/28 11:56:45;;;;;;;2.07;1.60;;;4.80;99.90;;;;;;5010000;28;20233;-79
2021/01/28 11:59:11;;;;;;;2.10;1.57;;;4.80;99.90;;;;;;5017615;28;20219;-87
2021/01/28 12:01:38;;;;;;;2.13;1.70;;;4.80;99.90;;;;;;5018738;28;20696;-82
2021/01/28 12:04:04;;;;;;;1.60;1.50;;;4.80;99.90;;;;;;5017514;28;20600;-85
2021/01/28 12:06:31;;;;;;;1.57;1.47;;;4.90;99.90;;;;;;5014106;28;20355;-83
2021/01/28 12:08:57;;;;;;;1.90;1.50;;;4.80;99.90;;;;;;5017690;28;20543;-78
2021/01/28 12:11:25;;;;;;;1.40;1.30;;;4.80;99.90;;;;;;5019012;28;20549;-80
2021/01/28 12:13:53;;;;;;;1.30;1.20;;;4.90;99.90;;;;;;5021941;28;20259;-79
2021/01/28 12:16:19;;;;;;;1.50;1.40;;;5.00;99.90;;;;;;5020740;28;20203;-82
2021/01/28 12:18:47;;;;;;;1.30;1.20;;;5.10;99.90;;;;;;5020085;28;20211;-81
2021/01/28 12:21:14;;;;;;;1.13;1.03;;;5.10;99.90;;;;;;5021462;28;20718;-84
2021/01/28 12:23:40;;;;;;;2.23;1.53;;;5.20;99.90;;;;;;5019212;28;20199;-78
2021/01/28 12:26:06;;;;;;;1.20;1.10;;;5.30;99.90;;;;;;5021802;28;20256;-78
2021/01/28 12:28:33;;;;;;;1.07;0.97;;;5.40;99.90;;;;;;5019579;28;20234;-78
2021/01/28 12:31:00;;;;;;;0.90;0.90;;;5.50;99.90;;;;;;5021452;28;20203;-78
2021/01/28 12:33:26;;;;;;;1.37;1.27;;;5.60;99.90;;;;;;5019715;28;20224;-77
2021/01/28 12:35:52;;;;;;;2.13;1.30;;;5.60;99.90;;;;;;5021481;28;20570;-82
2021/01/28 12:38:19;;;;;;;1.67;1.20;;;5.60;99.90;;;;;;5020969;28;20694;-78
2021/01/28 12:40:46;;;;;;;1.37;1.13;;;5.60;99.90;;;;;;5019649;28;20725;-78
2021/01/28 12:43:12;;;;;;;1.27;1.20;;;5.70;99.90;;;;;;5018010;28;20222;-83
2021/01/28 12:45:39;;;;;;;1.10;1.10;;;5.80;99.90;;;;;;5019444;28;20248;-81
2021/01/28 12:48:06;;;;;;;1.47;1.37;;;5.90;99.90;;;;;;5020131;28;20639;-79
2021/01/28 12:50:33;;;;;;;2.20;1.20;;;5.90;99.90;;;;;;5015860;28;20202;-82
2021/01/28 12:52:59;;;;;;;1.20;1.10;;;5.90;99.90;;;;;;5017866;28;20234;-79
2021/01/28 12:55:25;;;;;;;1.40;1.30;;;6.00;99.90;;;;;;5016701;28;20258;-78
2021/01/28 12:57:52;;;;;;;1.40;1.30;;;6.00;99.90;;;;;;5017039;28;20235;-83
2021/01/28 13:00:21;;;;;;;1.30;1.20;;;6.00;99.90;;;;;;5018960;28;20702;-82
2021/01/28 13:02:47;;;;;;;1.13;1.03;;;5.90;99.90;;;;;;5020096;28;20231;-77
2021/01/28 13:05:15;;;;;;;2.87;1.20;;;5.80;99.90;;;;;;5017326;28;20207;-80
2021/01/28 13:07:41;;;;;;;3.13;1.20;;;5.90;99.90;;;;;;5017062;28;20226;-78
2021/01/28 13:10:10;;;;;;;1.20;1.10;;;5.70;99.90;;;;;;5016397;28;20202;-80
2021/01/28 13:12:36;;;;;;;1.43;1.17;;;5.80;99.90;;;;;;5019031;28;20227;-77
2021/01/28 13:15:05;;;;;;;0.90;0.90;;;5.80;99.90;;;;;;5016007;28;20194;-77